createdAt,value
2019-04-19T00:03:24.226Z,5.20
2019-04-19T00:08:37.295Z,6.17
2019-04-19T00:13:28.418Z,7.87
2019-04-19T00:18:31.119Z,8.17
2019-04-19T00:23:38.325Z,5.30
2019-04-19T00:28:44.945Z,9.60
2019-04-19T00:33:47.569Z,5.53
2019-04-19T00:39:06.426Z,9.63
2019-04-19T00:44:38.536Z,9.73
2019-04-19T00:49:33.932Z,5.47
2019-04-19T00:54:45.554Z,9.83
2019-04-19T00:59:40.501Z,7.70
2019-04-19T01:04:39.686Z,8.90
2019-04-19T01:10:02.747Z,7.03
2019-04-19T01:15:01.026Z,12.20
2019-04-19T01:19:56.882Z,8.03
2019-04-19T01:24:56.318Z,5.70
2019-04-19T01:30:00.961Z,7.47
2019-04-19T01:35:09.716Z,9.40
2019-04-19T01:40:22.486Z,6.30
2019-04-19T01:45:42.391Z,6.20
2019-04-19T01:51:07.772Z,10.83
2019-04-19T01:55:53.199Z,12.53
2019-04-19T02:00:58.738Z,9.50
2019-04-19T02:06:05.152Z,7.87
2019-04-19T02:12:03.531Z,17.20
2019-04-19T02:17:02.578Z,11.03
2019-04-19T02:22:11.385Z,5.03
2019-04-19T02:27:10.101Z,7.17
2019-04-19T02:32:43.313Z,6.33
2019-04-19T02:37:37.628Z,6.57
2019-04-19T02:42:44.862Z,8.83
2019-04-19T02:48:12.988Z,7.40
2019-04-19T02:52:56.637Z,5.93
2019-04-19T02:58:04.534Z,9.00
2019-04-19T03:07:57.637Z,9.97
2019-04-19T03:13:19.546Z,11.57
2019-04-19T03:18:29.043Z,9.37
2019-04-19T03:23:21.798Z,9.40
2019-04-19T03:28:22.130Z,8.37
2019-04-19T03:38:39.818Z,10.80
2019-04-19T03:44:03.691Z,8.47
2019-04-19T03:49:19.600Z,10.60
2019-04-19T03:54:19.155Z,9.60
2019-04-19T03:59:02.854Z,8.90
2019-04-19T04:04:11.950Z,8.43
2019-04-19T04:09:25.113Z,8.30
2019-04-19T04:14:49.568Z,7.07
2019-04-19T04:19:39.655Z,8.23
2019-04-19T04:24:55.446Z,8.17
2019-04-19T04:30:00.124Z,6.07
2019-04-19T04:35:10.792Z,16.17
2019-04-19T04:39:57.679Z,9.33
2019-04-19T04:45:22.995Z,10.40
2019-04-19T04:51:04.447Z,8.93
2019-04-19T04:55:57.921Z,9.27
2019-04-19T05:01:05.006Z,9.70
2019-04-19T05:06:22.800Z,13.93
2019-04-19T05:11:24.426Z,7.03
2019-04-19T05:21:38.844Z,12.10
2019-04-19T05:26:48.135Z,7.27
2019-04-19T05:31:35.749Z,10.57
2019-04-19T05:36:54.603Z,12.30
2019-04-19T05:42:03.757Z,15.73
2019-04-19T05:47:17.198Z,13.67
2019-04-19T05:52:19.154Z,9.37
2019-04-19T05:57:28.107Z,11.13
2019-04-19T06:02:19.218Z,14.70
2019-04-19T06:07:31.743Z,15.00
2019-04-19T06:12:26.862Z,13.63
2019-04-19T06:17:56.348Z,10.43
2019-04-19T06:23:02.530Z,12.50
2019-04-19T06:33:13.787Z,11.50
2019-04-19T06:37:59.247Z,15.87
2019-04-19T06:43:11.136Z,15.20
2019-04-19T06:48:12.801Z,14.03
2019-04-19T06:53:12.280Z,12.77
2019-04-19T06:58:22.292Z,19.20
2019-04-19T07:03:19.822Z,13.43
2019-04-19T07:13:38.330Z,13.63
2019-04-19T07:18:42.513Z,20.00
2019-04-19T07:23:54.340Z,13.80
2019-04-19T07:28:41.908Z,19.63
2019-04-19T07:34:07.418Z,16.53
2019-04-19T07:39:09.462Z,15.63
2019-04-19T07:44:21.333Z,14.40
2019-04-19T07:49:15.312Z,17.47
2019-04-19T07:54:25.271Z,22.50
2019-04-19T07:59:55.688Z,16.03
2019-04-19T08:10:24.786Z,17.83
2019-04-19T08:15:15.447Z,16.43
2019-04-19T08:30:04.575Z,17.63
2019-04-19T08:35:09.383Z,20.20
2019-04-19T08:40:33.564Z,14.70
2019-04-19T08:45:33.057Z,20.40
2019-04-19T08:50:48.228Z,18.30
2019-04-19T08:56:05.616Z,18.00
2019-04-19T09:01:17.479Z,17.07
2019-04-19T09:07:05.757Z,17.60
2019-04-19T09:11:16.744Z,17.67
2019-04-19T09:16:20.429Z,14.50
2019-04-19T09:21:21.560Z,16.30
2019-04-19T09:26:36.919Z,17.27
2019-04-19T09:31:32.255Z,13.47
2019-04-19T09:36:35.796Z,16.23
2019-04-19T09:41:38.697Z,18.90
2019-04-19T09:46:36.029Z,18.40
2019-04-19T09:51:55.590Z,17.10
2019-04-19T09:56:57.946Z,19.60
2019-04-19T10:01:52.217Z,16.50
2019-04-19T10:06:54.214Z,16.37
2019-04-19T10:11:59.161Z,16.10
2019-04-19T10:17:12.350Z,13.73
2019-04-19T10:22:16.597Z,15.73
2019-04-19T10:27:24.867Z,14.70
2019-04-19T10:32:30.625Z,16.70
2019-04-19T10:37:33.724Z,18.83
2019-04-19T10:42:36.563Z,16.23
2019-04-19T10:47:39.969Z,17.03
2019-04-19T10:52:43.687Z,17.80
2019-04-19T10:57:47.348Z,21.00
2019-04-19T11:02:50.316Z,15.93
2019-04-19T11:07:53.759Z,13.87
2019-04-19T11:12:56.814Z,16.47
2019-04-19T11:17:59.555Z,19.23
2019-04-19T11:23:02.278Z,12.80
2019-04-19T11:28:05.058Z,18.60
2019-04-19T11:33:16.880Z,18.00
2019-04-19T11:38:20.922Z,17.67
2019-04-19T11:43:25.148Z,15.43
2019-04-19T11:48:30.336Z,19.90
2019-04-19T11:53:42.864Z,22.07
2019-04-19T11:58:47.097Z,18.03
2019-04-19T12:03:50.096Z,12.60
2019-04-19T12:08:54.026Z,17.03
2019-04-19T12:13:58.355Z,16.80
2019-04-19T12:19:02.170Z,13.13
2019-04-19T12:24:04.936Z,13.03
2019-04-19T12:29:07.657Z,15.97
2019-04-19T12:34:11.411Z,15.00
2019-04-19T12:39:15.113Z,13.50
2019-04-19T12:44:17.827Z,13.37
2019-04-19T12:49:20.804Z,12.57
2019-04-19T12:54:23.754Z,10.87
2019-04-19T12:59:26.559Z,16.60
2019-04-19T13:04:36.202Z,8.90
2019-04-19T13:09:39.319Z,9.07
2019-04-19T13:14:42.135Z,12.07
2019-04-19T13:19:45.091Z,10.97
2019-04-19T13:24:48.178Z,10.47
2019-04-19T13:29:52.000Z,9.93
2019-04-19T13:34:55.080Z,10.17
2019-04-19T13:40:17.509Z,11.60
2019-04-19T13:45:26.855Z,11.13
2019-04-19T13:50:32.182Z,10.70
2019-04-19T13:55:30.677Z,10.83
2019-04-19T14:00:46.805Z,11.13
2019-04-19T14:05:50.415Z,13.40
2019-04-19T14:10:53.181Z,9.17
2019-04-19T14:15:56.555Z,13.07
2019-04-19T14:21:00.966Z,9.27
2019-04-19T14:26:05.537Z,8.87
2019-04-19T14:31:08.514Z,11.40
2019-04-19T14:36:11.224Z,7.23
2019-04-19T14:41:13.972Z,15.47
2019-04-19T14:46:16.791Z,11.13
2019-04-19T14:51:25.813Z,12.03
2019-04-19T14:56:24.247Z,14.97
2019-04-19T15:01:46.898Z,9.57
2019-04-19T15:06:49.815Z,9.07
2019-04-19T15:11:52.717Z,10.00
2019-04-19T15:16:56.755Z,8.73
2019-04-19T15:21:59.801Z,8.43
2019-04-19T15:27:03.093Z,12.30
2019-04-19T15:32:06.341Z,10.83
2019-04-19T15:37:09.635Z,18.93
2019-04-19T15:42:12.437Z,7.93
2019-04-19T15:47:15.166Z,20.13
2019-04-19T15:52:18.104Z,7.57
2019-04-19T15:57:20.824Z,11.33
2019-04-19T16:02:42.282Z,11.30
2019-04-19T16:08:11.143Z,9.60
2019-04-19T16:13:13.969Z,13.00
2019-04-19T16:18:20.036Z,7.67
2019-04-19T16:23:23.894Z,13.43
2019-04-19T16:28:27.462Z,9.60
2019-04-19T16:33:30.386Z,6.80
2019-04-19T16:38:33.143Z,6.10
2019-04-19T16:43:35.886Z,8.47
2019-04-19T16:48:38.607Z,5.67
2019-04-19T16:53:42.232Z,8.40
2019-04-19T16:58:45.148Z,8.90
2019-04-19T17:03:47.907Z,7.87
2019-04-19T17:08:52.633Z,6.10
2019-04-19T17:13:56.591Z,8.53
2019-04-19T17:19:22.071Z,4.87
2019-04-19T17:24:26.867Z,4.10
2019-04-19T17:29:31.055Z,4.80
2019-04-19T17:34:34.217Z,6.20
2019-04-19T17:39:38.196Z,5.13
2019-04-19T17:44:41.744Z,4.90
2019-04-19T17:49:46.548Z,4.00
2019-04-19T17:55:04.964Z,4.27
2019-04-19T17:59:56.328Z,5.53
2019-04-19T18:05:00.024Z,7.07
2019-04-19T18:10:09.622Z,12.73
2019-04-19T18:15:09.832Z,6.03
2019-04-19T18:20:19.075Z,13.60
2019-04-19T18:25:20.147Z,6.07
2019-04-19T18:30:24.564Z,5.60
2019-04-19T18:35:31.796Z,4.70
2019-04-19T18:40:35.344Z,7.23
2019-04-19T18:45:41.966Z,9.33
2019-04-19T18:50:50.412Z,5.20
2019-04-19T18:55:53.581Z,5.10
2019-04-19T19:00:57.012Z,4.33
2019-04-19T19:06:04.097Z,11.17
2019-04-19T19:11:13.045Z,5.43
2019-04-19T19:16:18.569Z,8.00
2019-04-19T19:21:18.100Z,7.50
2019-04-19T19:26:31.869Z,17.13
2019-04-19T19:31:29.646Z,7.17
2019-04-19T19:36:37.936Z,6.80
2019-04-19T19:42:32.577Z,6.83
2019-04-19T19:47:25.130Z,6.53
2019-04-19T19:52:18.450Z,9.60
2019-04-19T19:57:23.009Z,9.30
2019-04-19T20:02:23.566Z,9.03
2019-04-19T20:07:20.667Z,10.97
2019-04-19T20:12:26.479Z,11.50
2019-04-19T20:17:29.279Z,11.60
2019-04-19T20:22:39.126Z,9.57
2019-04-19T20:27:44.870Z,10.73
2019-04-19T20:32:49.918Z,17.37
2019-04-19T20:37:52.046Z,7.73
2019-04-19T20:43:16.585Z,10.13
2019-04-19T20:48:07.901Z,10.00
2019-04-19T20:53:29.255Z,9.60
2019-04-19T20:58:34.324Z,11.10
2019-04-19T21:03:34.334Z,11.03
2019-04-19T21:08:42.365Z,12.50
2019-04-19T21:13:45.850Z,16.97
2019-04-19T21:18:49.440Z,18.67
2019-04-19T21:24:01.503Z,13.90
2019-04-19T21:28:59.192Z,14.53
2019-04-19T21:34:05.983Z,14.93
2019-04-19T21:39:11.973Z,18.33
2019-04-19T21:44:17.940Z,15.50
2019-04-19T21:49:22.804Z,10.00
2019-04-19T21:54:26.434Z,11.17
2019-04-19T21:59:34.553Z,9.90
2019-04-19T22:04:41.150Z,11.17
2019-04-19T22:09:43.379Z,15.77
2019-04-19T22:14:44.435Z,10.10
2019-04-19T22:19:47.728Z,11.80
2019-04-19T22:24:51.393Z,12.33
2019-04-19T22:29:55.571Z,10.10
2019-04-19T22:35:00.756Z,12.43
2019-04-19T22:40:04.869Z,9.00
2019-04-19T22:45:11.658Z,10.63
2019-04-19T22:50:19.391Z,9.17
2019-04-19T22:55:19.113Z,9.03
2019-04-19T23:00:24.729Z,8.47
2019-04-19T23:05:36.578Z,9.60
2019-04-19T23:10:45.038Z,9.90
2019-04-19T23:15:39.139Z,11.93
2019-04-19T23:20:43.388Z,9.50
2019-04-19T23:25:57.081Z,10.00
2019-04-19T23:30:51.753Z,12.93
2019-04-19T23:35:55.628Z,12.80
2019-04-19T23:40:59.277Z,8.10
2019-04-19T23:46:03.389Z,7.63
2019-04-19T23:51:06.399Z,6.30
2019-04-19T23:56:19.903Z,8.80
